createdAt,value
2019-03-21T10:29:07.446Z,36.00
2019-03-21T10:31:35.832Z,33.70
2019-03-21T10:34:04.240Z,32.90
2019-03-21T10:36:34.959Z,33.00
2019-03-21T10:39:04.036Z,33.30
2019-03-21T10:41:32.419Z,32.60
2019-03-21T10:44:00.825Z,32.50
2019-03-21T10:46:29.216Z,33.90
2019-03-21T10:48:57.619Z,32.40
2019-03-21T10:51:26.001Z,32.00
2019-03-21T10:53:54.400Z,30.90
2019-03-21T10:56:22.773Z,30.80
2019-03-21T10:58:51.155Z,28.20
2019-03-21T11:01:19.536Z,27.60
2019-03-21T11:03:47.947Z,27.20
2019-03-21T11:06:16.320Z,25.30
2019-03-21T11:08:44.712Z,24.30
2019-03-21T11:11:13.257Z,23.50
2019-03-21T11:13:41.653Z,22.20
2019-03-21T11:16:10.032Z,21.70
2019-03-21T11:18:38.411Z,21.40
2019-03-21T11:21:06.789Z,20.80
2019-03-21T11:23:35.177Z,19.40
2019-03-21T11:26:03.574Z,21.80
2019-03-21T11:28:31.982Z,21.90
2019-03-21T11:31:00.380Z,22.80
2019-03-21T11:33:28.763Z,24.90
2019-03-21T11:35:57.146Z,25.60
2019-03-21T11:38:25.522Z,25.40
2019-03-21T11:40:53.932Z,24.10
2019-03-21T11:43:22.311Z,25.00
2019-03-21T11:45:50.742Z,25.20
2019-03-21T11:48:19.136Z,25.10
2019-03-21T11:50:47.521Z,26.20
2019-03-21T11:53:15.901Z,26.80
2019-03-21T11:55:44.301Z,25.30
2019-03-21T11:58:12.682Z,27.00
2019-03-21T12:00:43.918Z,27.20
2019-03-21T12:03:11.694Z,26.90
2019-03-21T12:05:40.091Z,26.90
2019-03-21T12:08:08.461Z,26.60
2019-03-21T12:10:37.032Z,26.60
2019-03-21T12:13:05.408Z,26.80
2019-03-21T12:15:33.804Z,27.60
2019-03-21T12:18:02.192Z,27.20
2019-03-21T12:20:31.712Z,28.30
2019-03-21T12:23:00.092Z,27.30
2019-03-21T12:25:28.475Z,27.90
2019-03-21T12:27:56.903Z,27.10
2019-03-21T12:30:36.319Z,27.10
2019-03-21T12:33:04.982Z,28.00
2019-03-21T12:35:33.385Z,27.20
2019-03-21T12:38:01.758Z,27.50
2019-03-21T12:40:30.170Z,27.10
2019-03-21T12:42:58.524Z,26.40
2019-03-21T12:45:26.911Z,27.90
2019-03-21T12:47:55.284Z,27.20
2019-03-21T12:50:23.663Z,28.30
2019-03-21T12:52:52.048Z,28.10
2019-03-21T12:55:20.442Z,27.70
2019-03-21T12:57:48.840Z,28.00
2019-03-21T13:00:29.262Z,27.50
2019-03-21T13:02:57.644Z,28.10
2019-03-21T13:05:30.323Z,28.50
2019-03-21T13:07:58.710Z,28.50
2019-03-21T13:10:27.117Z,29.20
2019-03-21T13:12:55.484Z,28.80
2019-03-21T13:15:29.822Z,29.00
2019-03-21T13:17:53.924Z,28.80
2019-03-21T13:20:22.333Z,28.90
2019-03-21T13:22:53.606Z,28.20
2019-03-21T13:25:22.279Z,35.40
2019-03-21T13:27:50.653Z,29.90
2019-03-21T13:30:19.039Z,29.20
2019-03-21T13:32:47.353Z,31.60
2019-03-21T13:35:15.771Z,29.50
2019-03-21T13:37:44.114Z,31.20
2019-03-21T13:40:12.503Z,30.50
2019-03-21T13:42:40.920Z,29.30
2019-03-21T13:45:09.311Z,30.00
2019-03-21T13:47:37.696Z,29.40
2019-03-21T13:50:09.291Z,28.80
2019-03-21T13:52:37.761Z,28.90
2019-03-21T13:55:07.297Z,28.20
2019-03-21T13:57:35.695Z,28.20
2019-03-21T14:00:07.401Z,28.80
2019-03-21T14:02:35.799Z,28.20
2019-03-21T14:05:06.624Z,28.70
2019-03-21T14:07:35.040Z,27.60
2019-03-21T14:10:05.509Z,27.50
2019-03-21T14:12:33.910Z,28.10
2019-03-21T14:15:02.297Z,27.60
2019-03-21T14:17:30.692Z,28.00
2019-03-21T14:19:59.058Z,27.70
2019-03-21T14:22:27.496Z,28.10
2019-03-21T14:24:55.887Z,29.80
2019-03-21T14:27:26.017Z,29.40
2019-03-21T14:30:01.296Z,28.80
2019-03-21T14:32:24.578Z,29.20
2019-03-21T14:34:52.946Z,28.90
2019-03-21T14:37:21.342Z,28.80
2019-03-21T14:39:49.719Z,29.10
2019-03-21T14:42:18.111Z,29.80
2019-03-21T14:44:46.548Z,29.70
2019-03-21T14:47:14.943Z,31.50
2019-03-21T14:49:43.312Z,30.20
2019-03-21T14:52:11.701Z,30.30
2019-03-21T14:54:40.062Z,29.80
2019-03-21T14:57:08.464Z,29.80
2019-03-21T14:59:36.848Z,31.20
2019-03-21T15:02:05.255Z,30.30
2019-03-21T15:04:33.632Z,31.00
2019-03-21T15:07:02.023Z,30.00
2019-03-21T15:09:30.407Z,31.20
2019-03-21T15:11:59.039Z,30.50
2019-03-21T15:14:27.464Z,30.00
2019-03-21T15:16:55.883Z,30.50
2019-03-21T15:19:24.253Z,29.80
2019-03-21T15:21:52.619Z,30.10
2019-03-21T15:24:21.031Z,30.50
2019-03-21T15:26:51.218Z,30.90
2019-03-21T15:29:19.442Z,30.20
2019-03-21T15:31:47.744Z,29.90
2019-03-21T15:34:16.144Z,31.10
2019-03-21T15:36:44.530Z,30.30
2019-03-21T15:39:12.963Z,30.30
2019-03-21T15:41:41.330Z,30.90
2019-03-21T15:44:09.738Z,30.70
2019-03-21T15:46:38.112Z,31.20
2019-03-21T15:49:06.517Z,30.90
2019-03-21T15:51:34.900Z,30.60
2019-03-21T15:54:03.299Z,30.60
2019-03-21T15:56:31.669Z,30.50
2019-03-21T15:59:00.055Z,31.30
2019-03-21T16:01:28.432Z,31.90
2019-03-21T16:03:56.832Z,32.30
2019-03-21T16:06:25.196Z,32.40
2019-03-21T16:08:53.597Z,30.60
2019-03-21T16:11:21.955Z,31.30
2019-03-21T16:13:50.360Z,31.50
2019-03-21T16:16:18.744Z,31.80
2019-03-21T16:18:47.129Z,31.70
2019-03-21T16:21:15.491Z,36.30
2019-03-21T16:23:43.902Z,36.30
2019-03-21T16:26:12.270Z,35.90
2019-03-21T16:28:47.705Z,32.70
2019-03-21T16:31:16.079Z,32.00
2019-03-21T16:33:44.483Z,31.10
2019-03-21T16:36:12.856Z,35.20
2019-03-21T16:38:41.253Z,35.60
2019-03-21T16:41:09.630Z,31.70
2019-03-21T16:43:38.042Z,31.60
2019-03-21T16:46:06.417Z,32.70
2019-03-21T16:48:34.815Z,33.20
2019-03-21T16:51:03.301Z,33.30
2019-03-21T16:53:31.682Z,32.50
2019-03-21T16:56:00.072Z,33.40
2019-03-21T16:58:28.458Z,33.10
2019-03-21T17:00:56.835Z,34.00
2019-03-21T17:03:25.237Z,34.40
2019-03-21T17:05:53.600Z,34.80
2019-03-21T17:08:22.029Z,34.90
2019-03-21T17:10:50.467Z,34.90
2019-03-21T17:13:20.580Z,35.40
2019-03-21T17:15:48.979Z,35.70
2019-03-21T17:18:17.327Z,35.70
2019-03-21T17:20:45.744Z,36.20
2019-03-21T17:23:14.175Z,36.00
2019-03-21T17:25:42.557Z,36.40
2019-03-21T17:28:10.928Z,36.90
2019-03-21T17:30:39.319Z,37.60
2019-03-21T17:33:07.694Z,37.50
2019-03-21T17:35:36.083Z,38.30
2019-03-21T17:38:04.455Z,39.20
2019-03-21T17:40:32.848Z,39.20
2019-03-21T17:43:01.244Z,40.20
2019-03-21T17:45:29.632Z,40.70
2019-03-21T17:47:57.997Z,41.10
2019-03-21T17:50:26.396Z,42.00
2019-03-21T17:52:54.773Z,42.90
2019-03-21T17:55:23.182Z,43.00
2019-03-21T17:57:51.559Z,43.80
2019-03-21T18:00:25.127Z,44.20
2019-03-21T18:02:53.536Z,44.60
2019-03-21T18:05:21.940Z,45.30
2019-03-21T18:07:50.311Z,45.50
2019-03-21T18:10:26.070Z,45.90
2019-03-21T18:12:54.444Z,46.00
2019-03-21T18:15:22.835Z,45.90
2019-03-21T18:17:51.216Z,46.10
2019-03-21T18:20:19.618Z,46.80
2019-03-21T18:22:47.985Z,46.90
2019-03-21T18:25:16.397Z,46.70
2019-03-21T18:27:44.767Z,47.00
2019-03-21T18:30:13.162Z,47.50
2019-03-21T18:32:41.543Z,47.40
2019-03-21T18:35:09.944Z,47.60
2019-03-21T18:37:38.331Z,47.80
2019-03-21T18:40:08.446Z,48.20
2019-03-21T18:42:36.817Z,48.30
2019-03-21T18:45:07.710Z,48.60
2019-03-21T18:47:36.090Z,48.40
2019-03-21T18:50:09.128Z,48.60
2019-03-21T18:52:37.527Z,49.00
2019-03-21T18:55:07.215Z,49.00
2019-03-21T18:57:35.649Z,49.20
2019-03-21T19:00:07.096Z,49.40
2019-03-21T19:02:35.560Z,49.60
2019-03-21T19:05:05.724Z,50.00
2019-03-21T19:07:34.106Z,50.20
2019-03-21T19:10:02.875Z,50.10
2019-03-21T19:12:31.275Z,50.00
2019-03-21T19:14:59.679Z,50.00
2019-03-21T19:17:28.061Z,50.20
2019-03-21T19:19:56.472Z,50.80
2019-03-21T19:22:25.334Z,51.00
2019-03-21T19:24:53.716Z,51.50
2019-03-21T19:27:22.143Z,51.90
2019-03-21T19:29:50.555Z,52.20
2019-03-21T19:32:18.972Z,52.10
2019-03-21T19:34:47.365Z,52.40
2019-03-21T19:37:15.815Z,53.20
2019-03-21T19:39:44.194Z,54.10
2019-03-21T19:42:12.636Z,54.60
2019-03-21T19:44:41.023Z,54.50
2019-03-21T19:47:09.424Z,54.40
2019-03-21T19:49:37.795Z,54.40
2019-03-21T19:52:06.205Z,54.50
2019-03-21T19:54:34.574Z,54.60
2019-03-21T19:57:03.033Z,54.80
2019-03-21T19:59:31.412Z,55.00
2019-03-21T20:01:59.826Z,54.90
2019-03-21T20:04:28.194Z,55.50
2019-03-21T20:06:56.587Z,56.20
2019-03-21T20:09:24.969Z,57.40
2019-03-21T20:11:53.355Z,57.70
2019-03-21T20:14:21.728Z,57.60
2019-03-21T20:16:50.123Z,58.00
2019-03-21T20:19:18.503Z,58.10
2019-03-21T20:21:48.120Z,58.30
2019-03-21T20:24:16.799Z,58.10
2019-03-21T20:26:45.201Z,57.50
2019-03-21T20:29:15.513Z,58.10
2019-03-21T20:31:43.620Z,58.20
2019-03-21T20:34:13.012Z,58.80
2019-03-21T20:36:41.501Z,58.60
2019-03-21T20:39:09.875Z,58.90
2019-03-21T20:41:38.262Z,59.10
2019-03-21T20:44:15.016Z,59.40
2019-03-21T20:46:36.681Z,59.10
2019-03-21T20:49:05.054Z,59.50
2019-03-21T20:51:33.445Z,60.20
2019-03-21T20:54:01.818Z,60.80
2019-03-21T20:56:31.848Z,61.10
2019-03-21T20:59:00.220Z,61.10
2019-03-21T21:01:28.606Z,60.80
2019-03-21T21:03:56.994Z,60.80
2019-03-21T21:06:25.417Z,60.70
2019-03-21T21:08:53.797Z,60.50
2019-03-21T21:11:22.184Z,61.00
2019-03-21T21:13:50.551Z,61.30
2019-03-21T21:16:18.931Z,62.30
2019-03-21T21:18:47.319Z,63.00
2019-03-21T21:21:15.787Z,62.90
2019-03-21T21:23:44.080Z,63.20
2019-03-21T21:26:12.470Z,63.50
2019-03-21T21:28:40.844Z,62.90
2019-03-21T21:31:09.242Z,63.70
2019-03-21T21:33:39.238Z,63.30
2019-03-21T21:36:07.623Z,63.80
2019-03-21T21:38:35.993Z,64.30
2019-03-21T21:41:04.374Z,64.80
2019-03-21T21:43:32.762Z,65.60
2019-03-21T21:46:01.133Z,66.10
2019-03-21T21:48:29.522Z,67.10
2019-03-21T21:50:57.831Z,66.70
2019-03-21T21:53:26.211Z,66.70
2019-03-21T21:55:54.591Z,66.10
2019-03-21T21:58:22.992Z,65.80
2019-03-21T22:00:51.367Z,66.10
2019-03-21T22:03:19.777Z,66.80
2019-03-21T22:05:48.135Z,66.80
2019-03-21T22:08:16.528Z,67.00
2019-03-21T22:10:44.898Z,67.20
2019-03-21T22:13:13.291Z,66.40
2019-03-21T22:15:41.662Z,66.30
2019-03-21T22:18:10.045Z,66.50
2019-03-21T22:20:38.412Z,66.20
2019-03-21T22:23:06.800Z,65.60
2019-03-21T22:25:35.162Z,65.80
2019-03-21T22:28:03.557Z,65.60
2019-03-21T22:30:31.982Z,65.00
2019-03-21T22:33:00.373Z,64.80
2019-03-21T22:35:28.784Z,65.50
2019-03-21T22:37:57.126Z,67.20
2019-03-21T22:40:25.500Z,66.80
2019-03-21T22:42:53.891Z,67.10
2019-03-21T22:45:22.264Z,67.10
2019-03-21T22:47:50.945Z,66.80
2019-03-21T22:50:19.334Z,66.60
2019-03-21T22:52:47.738Z,67.00
2019-03-21T22:55:16.131Z,68.10
2019-03-21T22:57:44.533Z,68.70
2019-03-21T23:00:18.150Z,69.30
2019-03-21T23:02:46.544Z,69.40
2019-03-21T23:05:14.925Z,69.30
2019-03-21T23:07:43.331Z,69.60
2019-03-21T23:10:11.880Z,69.40
2019-03-21T23:12:40.445Z,70.80
2019-03-21T23:15:10.252Z,72.30
2019-03-21T23:17:38.804Z,72.50
2019-03-21T23:20:11.848Z,72.20
2019-03-21T23:22:40.257Z,71.80
2019-03-21T23:25:09.665Z,71.70
2019-03-21T23:27:38.073Z,72.50
2019-03-21T23:30:11.839Z,72.20
2019-03-21T23:32:40.245Z,71.70
2019-03-21T23:35:08.618Z,71.00
2019-03-21T23:37:37.439Z,71.50
2019-03-21T23:40:11.401Z,71.10
2019-03-21T23:42:39.803Z,70.80
2019-03-21T23:45:09.903Z,71.20
2019-03-21T23:47:38.272Z,70.70
2019-03-21T23:50:11.552Z,71.10
2019-03-21T23:52:39.278Z,71.50
2019-03-21T23:55:08.403Z,71.40
2019-03-21T23:57:36.769Z,71.60
